• Join FlightAware (Why Join?)
  • Login
  • US Flag 
03:15PM EDT


 

Airport Tracker/Info


-or-


 

Live Flight TrackerFlight Track Log ✈ N343WA ✈ 17-Jun-2013 ✈ KAPF - KTMB

Flight Track Log - Related Links

Times and Time Zones

All times are in EDT time to prevent confusion due to time zone crossing. See the N343WA flight status page for this flight to view local times or setup timezone preferences in your user account.

Time Position Orientation Groundspeed Altitude Reporting Facility
EDT Latitude Longitude Course Direction KTS MPH feet Rate Location/Type
08:18PM 26.1528 -81.6358 91° East 79 91 2,700  Level Miami Center
08:19PM 26.0934 -81.6164 110° East  Level Estimated
08:19PM 26.1450 -81.6125 110° East 79 91 3,100  Level Miami Center
08:20PM 26.0963 -81.5878 84° East  Level FlightAware Approximate
08:20PM 26.1333 -81.5911 121° Southeast 92 106 3,400  Level Miami Center
08:21PM 26.0861 -81.5614 96° East  Level Estimated
08:21PM 26.1214 -81.5722 125° Southeast 81 93 3,800  Level Miami Center
08:22PM 26.0857 -81.5327 91° East  Level FlightAware Approximate
08:22PM 26.1114 -81.5533 121° Southeast 75 86 4,200  Level Miami Center
08:23PM 26.0853 -81.5040 91° East  Level FlightAware Approximate
08:23PM 26.1017 -81.5344 120° Southeast 75 86 4,500  Level Miami Center
08:24PM 26.0897 -81.5131 122° Southeast 75 86 4,700 240 Climbing Miami Center
08:25PM 26.0758 -81.4964 133° Southeast 75 86 5,000 120 Climbing Miami Center
08:26PM 26.0619 -81.4750 126° Southeast 75 86 5,000  Level Miami Center
08:27PM 26.0522 -81.4517 115° Southeast 80 92 5,000  Level Miami Center
08:28PM 26.0403 -81.4325 125° Southeast 80 92 5,000  Level Miami Center
08:29PM 26.0325 -81.4092 110° East 80 92 5,000  Level Miami Center
08:30PM 26.0269 -81.3836 104° East 80 92 5,000  Level Miami Center
08:31PM 26.0194 -81.3625 112° Southeast 75 86 5,000  Level Miami Center
08:32PM 26.0075 -81.3389 119° Southeast 75 86 5,000  Level Miami Center
08:33PM 25.9978 -81.3178 117° Southeast 75 86 5,000  Level Miami Center
08:34PM 25.9881 -81.2919 113° Southeast 75 86 5,000  Level Miami Center
08:35PM 25.9783 -81.2686 115° Southeast 75 86 5,100  Climbing Miami Center
08:36PM 25.9686 -81.2428 113° Southeast 80 92 5,000 -120 Descending Miami Center
08:37PM 25.9547 -81.2192 123° Southeast 85 98 4,900 -60 Descending Miami Center
08:38PM 25.9406 -81.2025 133° Southeast 84 97 4,900 60 Level Miami Center
08:38PM 25.9350 -81.1861 111° Southeast 89 102 5,000 60 Climbing Miami Center
08:39PM 25.9311 -81.1722 107° East 85 98 5,000  Level Miami Center
08:39PM 25.9211 -81.1625 139° Southeast 88 101 5,000 -240 Level Miami Center
08:40PM 25.9192 -81.1486 99° East 85 98 4,800 -420 Descending Miami Center
08:40PM 25.9092 -81.1344 128° Southeast 92 106 4,600 -420 Descending Miami Center
08:41PM 25.9075 -81.1206 98° East 85 98 4,400 -540 Descending Miami Center
08:41PM 25.8975 -81.1086 133° Southeast 101 116 4,100 -420 Descending Miami Center
08:42PM 25.8958 -81.0947 98° East 85 98 4,000 -480 Descending Miami Center
08:42PM 25.8856 -81.0850 140° Southeast 97 112 3,700 -420 Descending Miami Center
08:43PM 25.8842 -81.0667 95° East 91 105 3,600 -300 Descending Miami Center
08:43PM 25.8739 -81.0592 147° Southeast 96 110 3,400 -300 Descending Miami Center
08:44PM 25.8744 -81.0408 88° East 96 110 3,300 -360 Descending Miami Center
08:44PM 25.8661 -81.0336 142° Southeast 92 106 3,100 -300 Descending Miami Center
08:45PM 25.8625 -81.0172 104° East 96 110 3,000 -120 Descending Miami Center
08:45PM 25.8564 -81.0078 126° Southeast 84 97 3,000 -240 Level Miami Center
08:46PM 25.8528 -80.9917 104° East 96 110 2,800 -420 Descending Miami Center
08:46PM 25.8447 -80.9844 141° Southeast 95 109 2,600 -420 Descending Miami Center
08:47PM 25.8431 -80.9658 96° East 96 110 2,400 -420 Descending Miami Center
08:47PM 25.8350 -80.9564 133° Southeast 94 108 2,200 -300 Descending Miami Center
08:48PM 25.8231 -80.9328 119° Southeast 85 98 2,000 -180 Descending Miami Center
08:49PM 25.8028 -80.9161 143° Southeast 79 91 1,900 -60 Descending Miami Center
08:50PM 25.7864 -80.8994 138° Southeast 80 92 1,900  Level Miami Center
08:51PM 25.7722 -80.8828 107° East 81 93 1,900  Level Miami Center
08:52PM 25.7791 -80.8726 107° East  Level FlightAware Approximate
08:52PM 25.7539 -80.8658 140° Southeast 84 97 2,000  Level Miami Center
08:53PM 25.7397 -80.8469 130° Southeast 81 93 2,000  Level Miami Center
08:54PM 25.7194 -80.8325 147° Southeast 83 96 2,100  Climbing Miami Center
08:55PM 25.7075 -80.8114 122° Southeast 84 97 2,100  Level Miami Center
08:56PM 25.6978 -80.7856 113° Southeast 87 100 2,100  Level Miami Center
08:58PM 25.6858 -80.7578 116° Southeast 86 99 2,100  Level Miami Center
08:59PM 25.6761 -80.7344 115° Southeast 84 97 2,100 -60 Level Miami Center
09:00PM 25.6664 -80.7086 113° Southeast 86 99 2,000 -240 Descending Miami Center
09:01PM 25.6567 -80.6806 111° Southeast 90 104 1,700 -240 Descending Miami Center
09:02PM 25.6467 -80.6597 118° Southeast 89 102 1,600 -60 Descending Miami Center
09:03PM 25.6347 -80.6317 115° Southeast 82 94 1,600  Level Miami Center
09:04PM 25.6353 -80.6108 88° East 86 99 1,600  Level Miami Center
09:05PM 25.6361 -80.5786 88° East 87 100 1,600  Level Miami Center
09:06PM 25.6369 -80.5464 88° East 85 98 1,600  Level Miami Center
09:07PM 25.6375 -80.5281 88° East 127 146 1,600 -360 Level Miami Center
09:08PM 25.6381 -80.5003 89° East 85 98 1,000 -480 Descending Miami Center
09:09PM 25.6469 -80.4775 67° East 87 100 700 -300 Descending Miami Center
09:11PM 25.6367 -80.4318 104° East  Level FlightAware Approximate
09:18PM 25.6333 -80.4167 110° East  Level FlightAware Approximate